createdAt,value
2023-04-16T00:04:40.820Z,0.00
2023-04-16T00:09:40.622Z,0.00
2023-04-16T00:14:40.558Z,0.00
2023-04-16T00:19:40.490Z,0.00
2023-04-16T00:24:40.426Z,0.00
2023-04-16T00:29:40.354Z,0.00
2023-04-16T00:34:40.302Z,0.00
2023-04-16T00:39:40.240Z,0.00
2023-04-16T00:44:40.193Z,0.00
2023-04-16T00:49:40.106Z,0.00
2023-04-16T00:54:40.064Z,0.00
2023-04-16T00:59:39.956Z,0.00
2023-04-16T01:04:39.900Z,0.00
2023-04-16T01:09:39.864Z,0.00
2023-04-16T01:14:39.779Z,0.00
2023-04-16T01:19:39.725Z,0.00
2023-04-16T01:24:39.645Z,0.00
2023-04-16T01:29:39.581Z,0.00
2023-04-16T01:34:39.524Z,0.00
2023-04-16T01:39:39.454Z,0.00
2023-04-16T01:44:39.410Z,0.00
2023-04-16T01:49:39.307Z,0.00
2023-04-16T01:54:39.266Z,0.00
2023-04-16T01:59:39.199Z,0.00
2023-04-16T02:04:39.119Z,0.00
2023-04-16T02:09:39.042Z,0.00
2023-04-16T02:14:38.979Z,0.00
2023-04-16T02:19:38.906Z,0.00
2023-04-16T02:24:38.851Z,0.00
2023-04-16T02:29:38.801Z,0.00
2023-04-16T02:34:38.720Z,0.00
2023-04-16T02:39:38.635Z,0.00
2023-04-16T02:44:38.581Z,0.00
2023-04-16T02:49:38.521Z,0.00
2023-04-16T02:54:38.452Z,0.00
2023-04-16T02:59:38.378Z,0.00
2023-04-16T03:04:38.463Z,0.00
2023-04-16T03:09:38.275Z,0.00
2023-04-16T03:14:38.191Z,0.00
2023-04-16T03:19:38.125Z,0.00
2023-04-16T03:24:38.077Z,0.00
2023-04-16T03:29:37.992Z,0.00
2023-04-16T03:34:37.932Z,4.00
2023-04-16T03:39:37.869Z,4.00
2023-04-16T03:44:37.801Z,12.00
2023-04-16T03:49:37.746Z,32.00
2023-04-16T03:54:37.673Z,64.00
2023-04-16T03:59:37.587Z,120.00
2023-04-16T04:04:37.635Z,188.00
2023-04-16T04:09:37.466Z,296.00
2023-04-16T04:14:37.420Z,476.00
2023-04-16T04:19:40.266Z,748.00
2023-04-16T04:24:38.278Z,1128.00
2023-04-16T04:29:37.219Z,1600.00
2023-04-16T04:34:37.157Z,2232.00
2023-04-16T04:39:37.170Z,3336.00
2023-04-16T04:44:37.031Z,5356.00
2023-04-16T04:49:36.953Z,7476.00
2023-04-16T04:54:36.898Z,10516.00
2023-04-16T04:59:36.823Z,12608.00
2023-04-16T05:04:36.782Z,11376.00
2023-04-16T05:09:36.687Z,13984.00
2023-04-16T05:14:36.621Z,13568.00
2023-04-16T05:19:36.545Z,13952.00
2023-04-16T05:24:36.501Z,8124.00
2023-04-16T05:29:36.412Z,7768.00
2023-04-16T05:34:36.357Z,8140.00
2023-04-16T05:39:36.279Z,8432.00
2023-04-16T05:44:36.243Z,10988.00
2023-04-16T05:49:36.152Z,14620.00
2023-04-16T05:54:36.091Z,18752.00
2023-04-16T05:59:36.018Z,15744.00
2023-04-16T06:04:35.952Z,17248.00
2023-04-16T06:09:35.884Z,17728.00
2023-04-16T06:14:35.855Z,20512.00
2023-04-16T06:19:35.773Z,20096.00
2023-04-16T06:24:35.711Z,22688.00
2023-04-16T06:29:41.091Z,23584.00
2023-04-16T06:34:36.585Z,24672.00
2023-04-16T06:39:35.474Z,19488.00
2023-04-16T06:44:35.452Z,23936.00
2023-04-16T06:49:35.353Z,26720.00
2023-04-16T06:54:35.276Z,19360.00
2023-04-16T06:59:35.215Z,21696.00
2023-04-16T07:04:35.192Z,26880.00
2023-04-16T07:09:35.111Z,17888.00
2023-04-16T07:14:35.034Z,18208.00
2023-04-16T07:19:35.053Z,19744.00
2023-04-16T07:24:34.911Z,18144.00
2023-04-16T07:29:34.896Z,20288.00
2023-04-16T07:34:34.833Z,26272.00
2023-04-16T07:39:34.783Z,26976.00
2023-04-16T07:44:34.779Z,23872.00
2023-04-16T07:49:34.556Z,21824.00
2023-04-16T07:54:34.518Z,20704.00
2023-04-16T07:59:34.556Z,20032.00
2023-04-16T08:04:34.608Z,18720.00
2023-04-16T08:09:34.283Z,20192.00
2023-04-16T08:14:34.228Z,24256.00
2023-04-16T08:19:34.172Z,24288.00
2023-04-16T08:24:34.149Z,23232.00
2023-04-16T08:29:34.014Z,23104.00
2023-04-16T08:34:33.954Z,27648.00
2023-04-16T08:39:33.867Z,28192.00
2023-04-16T08:44:33.838Z,34464.00
2023-04-16T08:49:33.733Z,31360.00
2023-04-16T08:54:33.880Z,24032.00
2023-04-16T08:59:33.630Z,19456.00
2023-04-16T09:04:33.612Z,17280.00
2023-04-16T09:09:34.537Z,16576.00
2023-04-16T09:14:33.398Z,16864.00
2023-04-16T09:19:33.335Z,17760.00
2023-04-16T09:24:33.292Z,18432.00
2023-04-16T09:29:33.211Z,18496.00
2023-04-16T09:34:33.135Z,17184.00
2023-04-16T09:39:33.086Z,16256.00
2023-04-16T09:44:33.012Z,15292.00
2023-04-16T09:49:32.935Z,15164.00
2023-04-16T09:54:33.325Z,14824.00
2023-04-16T09:59:32.802Z,14492.00
2023-04-16T10:04:32.766Z,14520.00
2023-04-16T10:09:32.663Z,13952.00
2023-04-16T10:14:32.660Z,14180.00
2023-04-16T10:19:32.547Z,14272.00
2023-04-16T10:24:32.479Z,14200.00
2023-04-16T10:29:32.399Z,13688.00
2023-04-16T10:34:32.351Z,13648.00
2023-04-16T10:39:32.303Z,13796.00
2023-04-16T10:44:32.210Z,13712.00
2023-04-16T10:49:32.164Z,13500.00
2023-04-16T10:54:32.315Z,13076.00
2023-04-16T10:59:32.001Z,13620.00
2023-04-16T11:04:31.997Z,13948.00
2023-04-16T11:09:31.865Z,14324.00
2023-04-16T11:14:31.817Z,13780.00
2023-04-16T11:19:31.739Z,14584.00
2023-04-16T11:24:31.701Z,14360.00
2023-04-16T11:29:31.603Z,14292.00
2023-04-16T11:34:31.530Z,13980.00
2023-04-16T11:39:31.489Z,13560.00
2023-04-16T11:44:31.409Z,13728.00
2023-04-16T11:49:31.337Z,13044.00
2023-04-16T11:54:31.276Z,12096.00
2023-04-16T11:59:31.196Z,12032.00
2023-04-16T12:04:31.305Z,12304.00
2023-04-16T12:09:31.592Z,12468.00
2023-04-16T12:14:31.016Z,12692.00
2023-04-16T12:19:30.964Z,12624.00
2023-04-16T12:24:30.883Z,12844.00
2023-04-16T12:29:30.827Z,12772.00
2023-04-16T12:34:48.397Z,13360.00
2023-04-16T12:39:31.704Z,13596.00
2023-04-16T12:44:30.605Z,13064.00
2023-04-16T12:49:30.544Z,12532.00
2023-04-16T12:54:30.611Z,11976.00
2023-04-16T12:59:30.424Z,11872.00
2023-04-16T13:04:30.397Z,11596.00
2023-04-16T13:09:30.294Z,10784.00
2023-04-16T13:14:30.218Z,9976.00
2023-04-16T13:19:30.149Z,9004.00
2023-04-16T13:24:30.091Z,8684.00
2023-04-16T13:29:30.166Z,8824.00
2023-04-16T13:34:29.958Z,9224.00
2023-04-16T13:39:29.881Z,8048.00
2023-04-16T13:44:29.832Z,7500.00
2023-04-16T13:49:29.872Z,8072.00
2023-04-16T13:54:29.678Z,8492.00
2023-04-16T13:59:29.658Z,8812.00
2023-04-16T14:04:29.540Z,9044.00
2023-04-16T14:09:29.514Z,8840.00
2023-04-16T14:14:29.409Z,8528.00
2023-04-16T14:19:29.386Z,7528.00
2023-04-16T14:24:29.264Z,6180.00
2023-04-16T14:29:29.207Z,5044.00
2023-04-16T14:34:29.153Z,5344.00
2023-04-16T14:39:29.071Z,4984.00
2023-04-16T14:44:29.092Z,5152.00
2023-04-16T14:49:28.927Z,5520.00
2023-04-16T14:54:29.128Z,5656.00
2023-04-16T14:59:28.911Z,5464.00
2023-04-16T15:04:28.853Z,5632.00
2023-04-16T15:09:28.660Z,4640.00
2023-04-16T15:14:28.643Z,3680.00
2023-04-16T15:19:28.529Z,3144.00
2023-04-16T15:24:28.450Z,3136.00
2023-04-16T15:29:28.454Z,3324.00
2023-04-16T15:34:28.333Z,3412.00
2023-04-16T15:39:28.260Z,3324.00
2023-04-16T15:44:28.191Z,3196.00
2023-04-16T15:49:28.112Z,3252.00
2023-04-16T15:54:28.121Z,3580.00
2023-04-16T15:59:28.001Z,4048.00
2023-04-16T16:04:28.028Z,3940.00
2023-04-16T16:09:27.874Z,3692.00
2023-04-16T16:14:27.795Z,3916.00
2023-04-16T16:19:27.721Z,3368.00
2023-04-16T16:24:27.653Z,3096.00
2023-04-16T16:29:27.589Z,2772.00
2023-04-16T16:34:27.530Z,2312.00
2023-04-16T16:39:27.451Z,2168.00
2023-04-16T16:44:27.372Z,1972.00
2023-04-16T16:49:27.315Z,1620.00
2023-04-16T16:54:27.250Z,1996.00
2023-04-16T16:59:27.189Z,2140.00
2023-04-16T17:04:27.186Z,1644.00
2023-04-16T17:09:27.068Z,1488.00
2023-04-16T17:14:27.026Z,1192.00
2023-04-16T17:19:26.931Z,804.00
2023-04-16T17:24:26.855Z,596.00
2023-04-16T17:29:26.798Z,432.00
2023-04-16T17:34:26.711Z,372.00
2023-04-16T17:39:26.680Z,224.00
2023-04-16T17:44:26.612Z,164.00
2023-04-16T17:49:26.511Z,128.00
2023-04-16T17:54:26.580Z,100.00
2023-04-16T17:59:26.379Z,68.00
2023-04-16T18:04:26.436Z,40.00
2023-04-16T18:09:26.696Z,20.00
2023-04-16T18:14:26.527Z,12.00
2023-04-16T18:23:08.369Z,4.00
2023-04-16T18:27:47.353Z,0.00
2023-04-16T18:37:47.593Z,0.00
2023-04-16T18:42:47.193Z,0.00
2023-04-16T18:47:47.079Z,0.00
2023-04-16T18:52:46.968Z,0.00
2023-04-16T18:57:46.940Z,0.00
2023-04-16T19:02:46.955Z,0.00
2023-04-16T19:07:46.795Z,0.00
2023-04-16T19:12:46.729Z,0.00
2023-04-16T19:17:46.743Z,0.00
2023-04-16T19:22:46.619Z,0.00
2023-04-16T19:27:46.590Z,0.00
2023-04-16T19:32:46.536Z,0.00
2023-04-16T19:37:46.390Z,0.00
2023-04-16T19:42:46.320Z,0.00
2023-04-16T19:47:46.264Z,0.00
2023-04-16T19:52:46.168Z,0.00
2023-04-16T19:57:46.095Z,0.00
2023-04-16T20:02:46.161Z,0.00
2023-04-16T20:07:45.932Z,0.00
2023-04-16T20:12:45.870Z,0.00
2023-04-16T20:17:45.868Z,0.00
2023-04-16T20:22:45.746Z,0.00
2023-04-16T20:27:45.679Z,0.00
2023-04-16T20:32:45.640Z,0.00
2023-04-16T20:37:45.549Z,0.00
2023-04-16T20:42:45.484Z,0.00
2023-04-16T20:47:45.517Z,0.00
2023-04-16T20:52:45.940Z,0.00
2023-04-16T20:57:45.373Z,0.00
2023-04-16T21:02:45.375Z,0.00
2023-04-16T21:07:45.198Z,0.00
2023-04-16T21:12:45.120Z,0.00
2023-04-16T21:17:45.118Z,0.00
2023-04-16T21:22:44.998Z,0.00
2023-04-16T21:27:44.961Z,0.00
2023-04-16T21:32:44.897Z,0.00
2023-04-16T21:37:44.795Z,0.00
2023-04-16T21:42:44.762Z,0.00
2023-04-16T21:47:44.800Z,0.00
2023-04-16T21:52:44.576Z,0.00
2023-04-16T21:57:44.541Z,0.00
2023-04-16T22:02:44.645Z,0.00
2023-04-16T22:07:44.409Z,0.00
2023-04-16T22:12:44.336Z,0.00
2023-04-16T22:17:44.315Z,0.00
2023-04-16T22:22:44.207Z,0.00
2023-04-16T22:27:44.120Z,0.00
2023-04-16T22:32:44.107Z,0.00
2023-04-16T22:37:43.986Z,0.00
2023-04-16T22:42:43.912Z,0.00
2023-04-16T22:47:43.879Z,0.00
2023-04-16T22:52:43.771Z,0.00
2023-04-16T22:57:43.703Z,0.00
2023-04-16T23:02:43.711Z,0.00
2023-04-16T23:07:43.575Z,0.00
2023-04-16T23:12:43.486Z,0.00
2023-04-16T23:17:43.497Z,0.00
2023-04-16T23:22:43.356Z,0.00
2023-04-16T23:27:43.313Z,0.00
2023-04-16T23:32:43.300Z,0.00
2023-04-16T23:37:43.210Z,0.00
2023-04-16T23:42:43.132Z,0.00
2023-04-16T23:47:43.143Z,0.00
2023-04-16T23:52:42.994Z,0.00
2023-04-16T23:57:42.938Z,0.00
